Herbert C Jackson — WL3972 — position and weather

sailwx.info

Track history (hours):
 
Tides and Currents Weather Stations Pressure Air Temp Water Temp Dewpoint Dewpoint Depression Visibility Wind Speed Wind Dir Waves Ship Positions

Herbert C Jackson

Owner: THE INTERLAKE STEAMSHIP COMPANY, Middleburg Heights, OH. More information available from US FCC via Universal Licensing System and Coast Guard Vessel Documentation Center.

Last reported at 2014-Oct-22 08:14 UTC. Time now 2014-Oct-23 10:22 UTC.
Position N 45°21' W 083°16'.

Length 239 m; draft 8.1 m.

Type: Cargo ship. MMSI: 366904930.

Date/timePositionNaut miles runAvg speedWind from/ knotsBaromVisibWave heightAir tempDewpointWater temp
2014-Oct-22 08:14N 45°21' W 083°16'912.4
2014-Oct-22 07:28N 45°29' W 083°24'5011.6
2014-Oct-22 03:08N 46°10' W 084°05'46 6.5
2014-Oct-21 20:00N 46°42' W 084°54'1010.2 350 / 91024.4 5.6 8.6
2014-Oct-21 19:00N 46°48' W 085°06'2512.3 020 / 141024.4 4.6 7.9
2014-Oct-21 17:00N 46°48' W 085°42'2512.3 030 / 171024.4 3.1 6.6
2014-Oct-21 15:00N 46°48' W 086°18'1413.7 030 / 181024.4 3.6 7.6
2014-Oct-21 14:00N 46°42' W 086°36'1212.3 030 / 241023.4 4.8 7.9
2014-Oct-21 13:00N 46°42' W 086°54'1010.2 020 / 201022.7 5.2 7.5
2014-Oct-21 12:00N 46°36' W 087°06'12 4.1 020 / 201022.4 5.3 7.7
2014-Oct-21 09:00N 46°36' W 087°24'0 0.0 290 / 21021.0 6.6 8.1
2014-Oct-21 08:00N 46°36' W 087°24'0 0.0 010 / 21020.0 6.0 8.2
2014-Oct-21 07:00N 46°36' W 087°24'0 0.0 350 / 21019.6 5.6 8.2
2014-Oct-21 06:00N 46°36' W 087°24'0 0.0 070 / 21019.0 5.6 8.2
2014-Oct-21 05:00N 46°36' W 087°24'0 0.0 1018.6 5.9 8.1
2014-Oct-21 03:00N 46°36' W 087°24'2110.3 060 / 41017.6 6.4 8.0
2014-Oct-21 01:00N 46°36' W 086°54'1413.7 340 / 231014.9 6.3 7.2
2014-Oct-21 00:00N 46°42' W 086°36'1212.3 340 / 261013.9 6.5 8.0
2014-Oct-20 23:00N 46°42' W 086°18'8 8.2 330 / 251012.2 6.5 7.9
2014-Oct-20 22:00N 46°42' W 086°06'2512.7 330 / 241010.5 6.5 7.8
2014-Oct-20 20:00N 46°48' W 085°30'2512.7 320 / 141009.5 7.4 7.6
2014-Oct-20 18:00N 46°42' W 084°54'1010.2 300 / 201007.5 8.1 8.8
2014-Oct-20 17:00N 46°36' W 084°42'18 5.9 300 / 221006.8 8.7 9.4
2014-Oct-20 14:00N 46°30' W 084°18'20 9.9 290 / 41007.2 8.0 9.0
2014-Oct-20 12:00N 46°12' W 084°06'17 9.2 220 / 41006.6 9.1 8.8
2014-Oct-20 10:07N 45°57' W 083°53'325.0
2014-Oct-20 10:00N 45°54' W 083°54'1514.6 220 / 121006.6 9.5 9.0
2014-Oct-20 09:00N 45°42' W 083°42'4912.3 210 / 151006.9 9.5 9.3
2014-Oct-20 05:00N 45°00' W 083°06'2512.7 220 / 191010.3 9.2 9.7
2014-Oct-20 03:00N 44°36' W 082°54'1312.7 220 / 231012.3 10.3 9.1
2014-Oct-20 02:00N 44°24' W 082°48'1312.7 200 / 171013.7 9.6 9.9
2014-Oct-20 01:00N 44°12' W 082°42'1312.8 190 / 181014.0 9.4 10.4
2014-Oct-20 00:00N 44°00' W 082°36'2412.2 200 / 151015.0 9.3 10.4
2014-Oct-19 22:00N 43°36' W 082°30'1212.0 240 / 121016.7 9.2 10.6
2014-Oct-19 21:00N 43°24' W 082°30'1918.5 230 / 141017.4 9.5 10.7
2014-Oct-19 20:00N 43°06' W 082°24'6 6.0 250 / 91018.1 9.5 11.8
2014-Oct-19 19:00N 43°00' W 082°24'19 9.3 240 / 71019.1 9.2 11.7
2014-Oct-19 17:00N 42°42' W 082°30'7 7.4 260 / 91020.8 7.7 11.7
2014-Oct-19 16:00N 42°36' W 082°36'1110.7 270 / 111021.6 6.1 11.7
2014-Oct-19 15:00N 42°30' W 082°48'1312.8 320 / 101021.6 4.9 12.1
2014-Oct-19 14:00N 42°18' W 082°54'9 3.0 310 / 61021.9 3.8 11.7
2014-Oct-19 11:00N 42°18' W 083°06'18 9.0 300 / 51021.6 1.6 12.2
2014-Oct-19 09:00N 42°00' W 083°06'11 5.4 310 / 161020.1 3.9 12.3
2014-Oct-19 07:00N 41°54' W 083°18'0 0.0 310 / 141020.1 4.7 12.9
2014-Oct-19 05:00N 41°54' W 083°18'0 0.0 290 / 71019.8 6.9 12.5
2014-Oct-19 02:00N 41°54' W 083°18'0 0.0 310 / 81019.1 8.2 13.3
2014-Oct-19 01:00N 41°54' W 083°18'4 4.5 300 / 81018.8 8.7 12.9
2014-Oct-19 00:00N 41°54' W 083°12'0 0.0 320 / 171017.1 9.1 12.3
2014-Oct-18 23:00N 41°54' W 083°12'0 0.0 340 / 161016.4 9.0 12.7
2014-Oct-18 22:00N 41°54' W 083°12'0 0.0 310 / 181016.1 9.0 12.7
2014-Oct-18 19:00N 41°54' W 083°12'4 4.5 310 / 191014.4 8.6 12.7
2014-Oct-18 18:00N 41°54' W 083°06'4 4.5 330 / 181013.4 9.0 12.8
2014-Oct-18 17:00N 41°54' W 083°12'7 7.5 320 / 211012.7 8.9 12.7
2014-Oct-18 16:00N 42°00' W 083°06'18 9.0 330 / 121012.7 9.0 12.8
2014-Oct-18 14:00N 42°18' W 083°06'2110.7 300 / 91010.8 7.7 12.9
2014-Oct-18 12:00N 42°30' W 082°42'1110.7 310 / 221008.1 7.8 12.5
2014-Oct-18 11:00N 42°36' W 082°30'19 9.3 300 / 121007.2 6.9 12.8
2014-Oct-18 09:00N 42°54' W 082°24'1212.0 280 / 101004.9 6.8 12.5
2014-Oct-18 08:00N 43°06' W 082°24'1212.0 290 / 221003.5 8.4 12.4
2014-Oct-18 07:00N 43°18' W 082°24'1212.0 300 / 251003.2 8.4 12.3
2014-Oct-18 06:00N 43°30' W 082°24'1312.8 290 / 231002.5 8.6 11.8
2014-Oct-18 05:00N 43°42' W 082°30'1212.0 300 / 241001.8 9.0 11.8
2014-Oct-18 04:00N 43°54' W 082°30'8213.7 300 / 261000.8 9.7 11.5
2014-Oct-17 22:00N 45°12' W 083°06'1414.0 300 / 15997.1 10.8 10.4
2014-Oct-17 21:00N 45°18' W 083°24'0 0.0 300 / 14996.7 10.9 10.5
2014-Oct-17 20:00N 45°18' W 083°24'0 0.0 320 / 11995.7 10.8 10.9
2014-Oct-17 16:00N 45°18' W 083°24'0 0.0 220 / 2996.7 13.1 10.9
2014-Oct-17 15:00N 45°18' W 083°24'0 0.0 210 / 4997.1 12.2 10.9
2014-Oct-17 13:00N 45°18' W 083°24'0 0.0 230 / 7997.4 11.2 10.8
2014-Oct-17 11:00N 45°18' W 083°24'10 5.2 210 / 8998.4 10.4 10.6
2014-Oct-17 09:00N 45°12' W 083°12'7 7.3 250 / 22998.8 11.1 10.5
2014-Oct-17 08:00N 45°06' W 083°06'18 9.2 240 / 12999.4 11.3 10.6
2014-Oct-17 06:00N 44°48' W 083°00'7 7.4 240 / 91001.5 11.1 10.2
2014-Oct-17 05:00N 44°42' W 082°54'1312.7 260 / 71002.2 11.2 10.2
2014-Oct-17 04:00N 44°30' W 082°48'19 9.3 220 / 101002.5 11.6 10.4
2014-Oct-17 02:00N 44°12' W 082°42'7 7.4 200 / 121003.9 11.9 11.1
2014-Oct-17 01:00N 44°06' W 082°36'1212.0 220 / 131004.2 11.9 11.4
2014-Oct-17 00:00N 43°54' W 082°36'13 6.4 240 / 31004.5 11.7 11.9
2014-Oct-16 22:00N 43°42' W 082°30'2010.0 350 / 131004.9 12.3 12.5
2014-Oct-16 20:00N 43°24' W 082°18'2412.2 350 / 161004.5 12.2 12.6
2014-Oct-16 18:00N 43°00' W 082°24'50 9.9 010 / 71005.5 14.3 13.2
2014-Oct-16 13:00N 42°18' W 083°00'4 4.4 360 / 101006.7 12.9 13.1
2014-Oct-16 12:00N 42°18' W 083°06'4 4.4 310 / 21007.4 13.1 15.4
2014-Oct-16 11:00N 42°18' W 083°12'0 0.0 310 / 81007.4 13.4 17.0
2014-Oct-16 08:00N 42°18' W 083°12'0 0.0 350 / 21007.0 14.5 16.5
2014-Oct-16 07:00N 42°18' W 083°12'0 0.0 290 / 31007.7 14.3 15.9
2014-Oct-16 06:00N 42°18' W 083°12'19 6.2 100 / 21008.1 14.8 17.3
2014-Oct-16 03:00N 42°24' W 082°48'27 9.1 320 / 21009.1 14.6 13.1
2014-Oct-16 00:00N 42°48' W 082°30'7 7.4 020 / 21009.6 15.1 13.3
2014-Oct-15 23:00N 42°54' W 082°24'1212.0 1009.3 16.6 13.1
2014-Oct-15 22:00N 43°06' W 082°24'1212.0 080 / 91009.3 14.9 12.9
2014-Oct-15 21:00N 43°18' W 082°24'1212.0 090 / 101008.6 14.9 12.8
2014-Oct-15 20:00N 43°30' W 082°24'2412.2 120 / 81008.9 14.9 11.6
2014-Oct-15 18:00N 43°54' W 082°30'1312.8 140 / 141008.6 13.9 11.4
2014-Oct-15 17:00N 44°06' W 082°36'9112.9 130 / 311009.3 13.5 11.1
2014-Oct-15 10:00N 45°30' W 083°24'1010.3 080 / 101007.6 11.6 9.6
2014-Oct-15 09:00N 45°36' W 083°36'1312.7 100 / 321006.2 11.6 9.9
2014-Oct-15 08:00N 45°48' W 083°42'1514.6 050 / 371005.2 11.3 9.4
2014-Oct-15 07:00N 46°00' W 083°54'7 7.3 070 / 141008.6 11.5 9.1
2014-Oct-15 06:00N 46°06' W 084°00'1010.3 050 / 211007.2 11.7 9.7
2014-Oct-15 05:00N 46°12' W 084°12'24 4.9 070 / 101008.6 11.7 9.7
2014-Oct-15 00:00N 46°30' W 084°36'1010.2 060 / 131008.8 10.4 9.3
2014-Oct-14 23:00N 46°36' W 084°48'1312.7 050 / 281007.8 10.7 9.9
2014-Oct-14 22:00N 46°48' W 084°54'1413.7 050 / 251007.8 11.0 9.5
2014-Oct-14 21:00N 46°54' W 085°12'2512.7 020 / 281007.1 9.5 8.5
2014-Oct-14 19:00N 46°48' W 085°48'1212.3 010 / 251006.4 8.9 7.7
2014-Oct-14 18:00N 46°48' W 086°06'1413.7 010 / 281006.8 9.1 7.4
2014-Oct-14 17:00N 46°42' W 086°24'2512.7 020 / 291006.1 9.0 8.2
2014-Oct-14 15:00N 46°36' W 087°00'16 5.5 360 / 271007.1 8.3 7.9
2014-Oct-14 12:00N 46°36' W 087°24'0 0.0 110 / 21006.8 8.9 9.6
2014-Oct-14 11:00N 46°36' W 087°24'0 0.0 040 / 31006.8 9.0 9.8
2014-Oct-14 10:00N 46°36' W 087°24'0 0.0 330 / 51007.1 8.8 9.8
2014-Oct-14 07:00N 46°36' W 087°24'0 0.0 030 / 81006.4 8.7 9.6
2014-Oct-14 06:00N 46°36' W 087°24'1212.4 1006.8 9.3 9.4
2014-Oct-14 05:00N 46°36' W 087°06'1212.4 020 / 151006.4 9.2 9.0
2014-Oct-14 04:00N 46°36' W 086°48'1413.7 040 / 181007.5 9.6 9.4
2014-Oct-14 03:00N 46°42' W 086°30'1212.3 060 / 101009.5 9.2 8.1
2014-Oct-14 02:00N 46°42' W 086°12'1413.7 080 / 71010.2 9.6 8.3
2014-Oct-14 01:00N 46°48' W 085°54'1212.3 070 / 111010.2 9.8 9.0
2014-Oct-14 00:00N 46°48' W 085°36'1616.4 060 / 61011.2 10.1 8.7
2014-Oct-13 23:00N 46°48' W 085°12'1212.3 100 / 111010.8 10.7 9.1
2014-Oct-13 22:00N 46°48' W 084°54'1514.6 070 / 61011.2 11.0 9.9
2014-Oct-13 21:00N 46°36' W 084°42'1010.2 010 / 81010.5 11.4 9.9
2014-Oct-13 20:00N 46°30' W 084°30'8 4.1 150 / 61011.2 12.3 9.7
2014-Oct-13 18:00N 46°30' W 084°18'15 7.3 160 / 31012.3 10.9 9.6
2014-Oct-13 16:00N 46°18' W 084°06'1312.7 110 / 51012.0 11.3 9.4
2014-Oct-13 15:00N 46°06' W 084°00'7 7.3 120 / 121012.7 10.6 9.0
2014-Oct-13 14:00N 46°00' W 083°54'2713.5 110 / 101012.3 10.7 8.6
2014-Oct-13 12:00N 45°36' W 083°36'1514.7 130 / 131013.3 10.9 9.8
2014-Oct-13 11:00N 45°24' W 083°24'2211.0 140 / 111013.3 10.9 9.3
2014-Oct-13 09:00N 45°06' W 083°06'1312.7 140 / 141014.7 11.3 10.5
2014-Oct-13 08:00N 44°54' W 083°00'1312.7 140 / 81015.0 11.1 9.8
2014-Oct-13 07:00N 44°42' W 082°54'3115.6 150 / 111015.7 11.4 9.9
2014-Oct-13 05:00N 44°12' W 082°42'1312.8 150 / 191016.7 12.0 11.0
2014-Oct-13 04:00N 44°00' W 082°36'1312.8 140 / 161016.7 12.0 11.0
2014-Oct-13 03:00N 43°48' W 082°30'2412.2 140 / 171017.4 12.8 11.4
2014-Oct-13 01:00N 43°24' W 082°24'2412.0 130 / 171018.1 13.5 11.8
2014-Oct-12 23:00N 43°00' W 082°24'19 9.3 120 / 61018.4 13.0 12.7
2014-Oct-12 21:00N 42°42' W 082°30'1312.8 100 / 111018.4 14.1 12.6
2014-Oct-12 20:00N 42°30' W 082°36'2110.7 120 / 101018.9 14.0 12.8
2014-Oct-12 18:00N 42°18' W 083°00'9 3.0 100 / 121019.9 13.5 12.0
2014-Oct-12 15:00N 42°18' W 083°12'0 0.0 130 / 91022.6 12.2 18.5
2014-Oct-12 14:00N 42°18' W 083°12'0 0.0 120 / 51023.0 11.0 18.2
2014-Oct-12 13:00N 42°18' W 083°12'0 0.0 140 / 51023.3 10.0 16.0
2014-Oct-12 11:00N 42°18' W 083°12'4 4.4 150 / 21023.0 7.2 16.0
2014-Oct-12 10:00N 42°18' W 083°06'   080 / 31023.3 7.9 15.4
Track history (hours):
 
Tides and Currents Weather Stations Pressure Air Temp Water Temp Dewpoint Dewpoint Depression Visibility Wind Speed Wind Dir Waves Ship Positions

Herbert C Jackson

Owner: THE INTERLAKE STEAMSHIP COMPANY, Middleburg Heights, OH. More information available from US FCC via Universal Licensing System and Coast Guard Vessel Documentation Center.

Last reported at 2014-Oct-22 08:14 UTC. Time now 2014-Oct-23 10:22 UTC.
Position N 45°21' W 083°16'.

Length 239 m; draft 8.1 m.

Type: Cargo ship. MMSI: 366904930.

Date/timePositionNaut miles runAvg speedWind from/ knotsBaromVisibWave heightAir tempDewpointWater temp
2014-Oct-22 08:14N 45°21' W 083°16'912.4
2014-Oct-22 07:28N 45°29' W 083°24'5011.6
2014-Oct-22 03:08N 46°10' W 084°05'46 6.5
2014-Oct-21 20:00N 46°42' W 084°54'1010.2 350 / 91024.4 5.6 8.6
2014-Oct-21 19:00N 46°48' W 085°06'2512.3 020 / 141024.4 4.6 7.9
2014-Oct-21 17:00N 46°48' W 085°42'2512.3 030 / 171024.4 3.1 6.6
2014-Oct-21 15:00N 46°48' W 086°18'1413.7 030 / 181024.4 3.6 7.6
2014-Oct-21 14:00N 46°42' W 086°36'1212.3 030 / 241023.4 4.8 7.9
2014-Oct-21 13:00N 46°42' W 086°54'1010.2 020 / 201022.7 5.2 7.5
2014-Oct-21 12:00N 46°36' W 087°06'12 4.1 020 / 201022.4 5.3 7.7
2014-Oct-21 09:00N 46°36' W 087°24'0 0.0 290 / 21021.0 6.6 8.1
2014-Oct-21 08:00N 46°36' W 087°24'0 0.0 010 / 21020.0 6.0 8.2
2014-Oct-21 07:00N 46°36' W 087°24'0 0.0 350 / 21019.6 5.6 8.2
2014-Oct-21 06:00N 46°36' W 087°24'0 0.0 070 / 21019.0 5.6 8.2
2014-Oct-21 05:00N 46°36' W 087°24'0 0.0 1018.6 5.9 8.1
2014-Oct-21 03:00N 46°36' W 087°24'2110.3 060 / 41017.6 6.4 8.0
2014-Oct-21 01:00N 46°36' W 086°54'1413.7 340 / 231014.9 6.3 7.2
2014-Oct-21 00:00N 46°42' W 086°36'1212.3 340 / 261013.9 6.5 8.0
2014-Oct-20 23:00N 46°42' W 086°18'8 8.2 330 / 251012.2 6.5 7.9
2014-Oct-20 22:00N 46°42' W 086°06'2512.7 330 / 241010.5 6.5 7.8
2014-Oct-20 20:00N 46°48' W 085°30'2512.7 320 / 141009.5 7.4 7.6
2014-Oct-20 18:00N 46°42' W 084°54'1010.2 300 / 201007.5 8.1 8.8
2014-Oct-20 17:00N 46°36' W 084°42'18 5.9 300 / 221006.8 8.7 9.4
2014-Oct-20 14:00N 46°30' W 084°18'20 9.9 290 / 41007.2 8.0 9.0
2014-Oct-20 12:00N 46°12' W 084°06'17 9.2 220 / 41006.6 9.1 8.8
2014-Oct-20 10:07N 45°57' W 083°53'325.0
2014-Oct-20 10:00N 45°54' W 083°54'1514.6 220 / 121006.6 9.5 9.0
2014-Oct-20 09:00N 45°42' W 083°42'4912.3 210 / 151006.9 9.5 9.3
2014-Oct-20 05:00N 45°00' W 083°06'2512.7 220 / 191010.3 9.2 9.7
2014-Oct-20 03:00N 44°36' W 082°54'1312.7 220 / 231012.3 10.3 9.1
2014-Oct-20 02:00N 44°24' W 082°48'1312.7 200 / 171013.7 9.6 9.9
2014-Oct-20 01:00N 44°12' W 082°42'1312.8 190 / 181014.0 9.4 10.4
2014-Oct-20 00:00N 44°00' W 082°36'2412.2 200 / 151015.0 9.3 10.4
2014-Oct-19 22:00N 43°36' W 082°30'1212.0 240 / 121016.7 9.2 10.6
2014-Oct-19 21:00N 43°24' W 082°30'1918.5 230 / 141017.4 9.5 10.7
2014-Oct-19 20:00N 43°06' W 082°24'6 6.0 250 / 91018.1 9.5 11.8
2014-Oct-19 19:00N 43°00' W 082°24'19 9.3 240 / 71019.1 9.2 11.7
2014-Oct-19 17:00N 42°42' W 082°30'7 7.4 260 / 91020.8 7.7 11.7
2014-Oct-19 16:00N 42°36' W 082°36'1110.7 270 / 111021.6 6.1 11.7
2014-Oct-19 15:00N 42°30' W 082°48'1312.8 320 / 101021.6 4.9 12.1
2014-Oct-19 14:00N 42°18' W 082°54'9 3.0 310 / 61021.9 3.8 11.7
2014-Oct-19 11:00N 42°18' W 083°06'18 9.0 300 / 51021.6 1.6 12.2
2014-Oct-19 09:00N 42°00' W 083°06'11 5.4 310 / 161020.1 3.9 12.3
2014-Oct-19 07:00N 41°54' W 083°18'0 0.0 310 / 141020.1 4.7 12.9
2014-Oct-19 05:00N 41°54' W 083°18'0 0.0 290 / 71019.8 6.9 12.5
2014-Oct-19 02:00N 41°54' W 083°18'0 0.0 310 / 81019.1 8.2 13.3
2014-Oct-19 01:00N 41°54' W 083°18'4 4.5 300 / 81018.8 8.7 12.9
2014-Oct-19 00:00N 41°54' W 083°12'0 0.0 320 / 171017.1 9.1 12.3
2014-Oct-18 23:00N 41°54' W 083°12'0 0.0 340 / 161016.4 9.0 12.7
2014-Oct-18 22:00N 41°54' W 083°12'0 0.0 310 / 181016.1 9.0 12.7
2014-Oct-18 19:00N 41°54' W 083°12'4 4.5 310 / 191014.4 8.6 12.7
2014-Oct-18 18:00N 41°54' W 083°06'4 4.5 330 / 181013.4 9.0 12.8
2014-Oct-18 17:00N 41°54' W 083°12'7 7.5 320 / 211012.7 8.9 12.7
2014-Oct-18 16:00N 42°00' W 083°06'18 9.0 330 / 121012.7 9.0 12.8
2014-Oct-18 14:00N 42°18' W 083°06'2110.7 300 / 91010.8 7.7 12.9
2014-Oct-18 12:00N 42°30' W 082°42'1110.7 310 / 221008.1 7.8 12.5
2014-Oct-18 11:00N 42°36' W 082°30'19 9.3 300 / 121007.2 6.9 12.8
2014-Oct-18 09:00N 42°54' W 082°24'1212.0 280 / 101004.9 6.8 12.5
2014-Oct-18 08:00N 43°06' W 082°24'1212.0 290 / 221003.5 8.4 12.4
2014-Oct-18 07:00N 43°18' W 082°24'1212.0 300 / 251003.2 8.4 12.3
2014-Oct-18 06:00N 43°30' W 082°24'1312.8 290 / 231002.5 8.6 11.8
2014-Oct-18 05:00N 43°42' W 082°30'1212.0 300 / 241001.8 9.0 11.8
2014-Oct-18 04:00N 43°54' W 082°30'8213.7 300 / 261000.8 9.7 11.5
2014-Oct-17 22:00N 45°12' W 083°06'1414.0 300 / 15997.1 10.8 10.4
2014-Oct-17 21:00N 45°18' W 083°24'0 0.0 300 / 14996.7 10.9 10.5
2014-Oct-17 20:00N 45°18' W 083°24'0 0.0 320 / 11995.7 10.8 10.9
2014-Oct-17 16:00N 45°18' W 083°24'0 0.0 220 / 2996.7 13.1 10.9
2014-Oct-17 15:00N 45°18' W 083°24'0 0.0 210 / 4997.1 12.2 10.9
2014-Oct-17 13:00N 45°18' W 083°24'0 0.0 230 / 7997.4 11.2 10.8
2014-Oct-17 11:00N 45°18' W 083°24'10 5.2 210 / 8998.4 10.4 10.6
2014-Oct-17 09:00N 45°12' W 083°12'7 7.3 250 / 22998.8 11.1 10.5
2014-Oct-17 08:00N 45°06' W 083°06'18 9.2 240 / 12999.4 11.3 10.6
2014-Oct-17 06:00N 44°48' W 083°00'7 7.4 240 / 91001.5 11.1 10.2
2014-Oct-17 05:00N 44°42' W 082°54'1312.7 260 / 71002.2 11.2 10.2
2014-Oct-17 04:00N 44°30' W 082°48'19 9.3 220 / 101002.5 11.6 10.4
2014-Oct-17 02:00N 44°12' W 082°42'7 7.4 200 / 121003.9 11.9 11.1
2014-Oct-17 01:00N 44°06' W 082°36'1212.0 220 / 131004.2 11.9 11.4
2014-Oct-17 00:00N 43°54' W 082°36'13 6.4 240 / 31004.5 11.7 11.9
2014-Oct-16 22:00N 43°42' W 082°30'2010.0 350 / 131004.9 12.3 12.5
2014-Oct-16 20:00N 43°24' W 082°18'2412.2 350 / 161004.5 12.2 12.6
2014-Oct-16 18:00N 43°00' W 082°24'50 9.9 010 / 71005.5 14.3 13.2
2014-Oct-16 13:00N 42°18' W 083°00'4 4.4 360 / 101006.7 12.9 13.1
2014-Oct-16 12:00N 42°18' W 083°06'4 4.4 310 / 21007.4 13.1 15.4
2014-Oct-16 11:00N 42°18' W 083°12'0 0.0 310 / 81007.4 13.4 17.0
2014-Oct-16 08:00N 42°18' W 083°12'0 0.0 350 / 21007.0 14.5 16.5
2014-Oct-16 07:00N 42°18' W 083°12'0 0.0 290 / 31007.7 14.3 15.9
2014-Oct-16 06:00N 42°18' W 083°12'19 6.2 100 / 21008.1 14.8 17.3
2014-Oct-16 03:00N 42°24' W 082°48'27 9.1 320 / 21009.1 14.6 13.1
2014-Oct-16 00:00N 42°48' W 082°30'7 7.4 020 / 21009.6 15.1 13.3
2014-Oct-15 23:00N 42°54' W 082°24'1212.0 1009.3 16.6 13.1
2014-Oct-15 22:00N 43°06' W 082°24'1212.0 080 / 91009.3 14.9 12.9
2014-Oct-15 21:00N 43°18' W 082°24'1212.0 090 / 101008.6 14.9 12.8
2014-Oct-15 20:00N 43°30' W 082°24'2412.2 120 / 81008.9 14.9 11.6
2014-Oct-15 18:00N 43°54' W 082°30'1312.8 140 / 141008.6 13.9 11.4
2014-Oct-15 17:00N 44°06' W 082°36'9112.9 130 / 311009.3 13.5 11.1
2014-Oct-15 10:00N 45°30' W 083°24'1010.3 080 / 101007.6 11.6 9.6
2014-Oct-15 09:00N 45°36' W 083°36'1312.7 100 / 321006.2 11.6 9.9
2014-Oct-15 08:00N 45°48' W 083°42'1514.6 050 / 371005.2 11.3 9.4
2014-Oct-15 07:00N 46°00' W 083°54'7 7.3 070 / 141008.6 11.5 9.1
2014-Oct-15 06:00N 46°06' W 084°00'1010.3 050 / 211007.2 11.7 9.7
2014-Oct-15 05:00N 46°12' W 084°12'24 4.9 070 / 101008.6 11.7 9.7
2014-Oct-15 00:00N 46°30' W 084°36'1010.2 060 / 131008.8 10.4 9.3
2014-Oct-14 23:00N 46°36' W 084°48'1312.7 050 / 281007.8 10.7 9.9
2014-Oct-14 22:00N 46°48' W 084°54'1413.7 050 / 251007.8 11.0 9.5
2014-Oct-14 21:00N 46°54' W 085°12'2512.7 020 / 281007.1 9.5 8.5
2014-Oct-14 19:00N 46°48' W 085°48'1212.3 010 / 251006.4 8.9 7.7
2014-Oct-14 18:00N 46°48' W 086°06'1413.7 010 / 281006.8 9.1 7.4
2014-Oct-14 17:00N 46°42' W 086°24'2512.7 020 / 291006.1 9.0 8.2
2014-Oct-14 15:00N 46°36' W 087°00'16 5.5 360 / 271007.1 8.3 7.9
2014-Oct-14 12:00N 46°36' W 087°24'0 0.0 110 / 21006.8 8.9 9.6
2014-Oct-14 11:00N 46°36' W 087°24'0 0.0 040 / 31006.8 9.0 9.8
2014-Oct-14 10:00N 46°36' W 087°24'0 0.0 330 / 51007.1 8.8 9.8
2014-Oct-14 07:00N 46°36' W 087°24'0 0.0 030 / 81006.4 8.7 9.6
2014-Oct-14 06:00N 46°36' W 087°24'1212.4 1006.8 9.3 9.4
2014-Oct-14 05:00N 46°36' W 087°06'1212.4 020 / 151006.4 9.2 9.0
2014-Oct-14 04:00N 46°36' W 086°48'1413.7 040 / 181007.5 9.6 9.4
2014-Oct-14 03:00N 46°42' W 086°30'1212.3 060 / 101009.5 9.2 8.1
2014-Oct-14 02:00N 46°42' W 086°12'1413.7 080 / 71010.2 9.6 8.3
2014-Oct-14 01:00N 46°48' W 085°54'1212.3 070 / 111010.2 9.8 9.0
2014-Oct-14 00:00N 46°48' W 085°36'1616.4 060 / 61011.2 10.1 8.7
2014-Oct-13 23:00N 46°48' W 085°12'1212.3 100 / 111010.8 10.7 9.1
2014-Oct-13 22:00N 46°48' W 084°54'1514.6 070 / 61011.2 11.0 9.9
2014-Oct-13 21:00N 46°36' W 084°42'1010.2 010 / 81010.5 11.4 9.9
2014-Oct-13 20:00N 46°30' W 084°30'8 4.1 150 / 61011.2 12.3 9.7
2014-Oct-13 18:00N 46°30' W 084°18'15 7.3 160 / 31012.3 10.9 9.6
2014-Oct-13 16:00N 46°18' W 084°06'1312.7 110 / 51012.0 11.3 9.4
2014-Oct-13 15:00N 46°06' W 084°00'7 7.3 120 / 121012.7 10.6 9.0
2014-Oct-13 14:00N 46°00' W 083°54'2713.5 110 / 101012.3 10.7 8.6
2014-Oct-13 12:00N 45°36' W 083°36'1514.7 130 / 131013.3 10.9 9.8
2014-Oct-13 11:00N 45°24' W 083°24'2211.0 140 / 111013.3 10.9 9.3
2014-Oct-13 09:00N 45°06' W 083°06'1312.7 140 / 141014.7 11.3 10.5
2014-Oct-13 08:00N 44°54' W 083°00'1312.7 140 / 81015.0 11.1 9.8
2014-Oct-13 07:00N 44°42' W 082°54'3115.6 150 / 111015.7 11.4 9.9
2014-Oct-13 05:00N 44°12' W 082°42'1312.8 150 / 191016.7 12.0 11.0
2014-Oct-13 04:00N 44°00' W 082°36'1312.8 140 / 161016.7 12.0 11.0
2014-Oct-13 03:00N 43°48' W 082°30'2412.2 140 / 171017.4 12.8 11.4
2014-Oct-13 01:00N 43°24' W 082°24'2412.0 130 / 171018.1 13.5 11.8
2014-Oct-12 23:00N 43°00' W 082°24'19 9.3 120 / 61018.4 13.0 12.7
2014-Oct-12 21:00N 42°42' W 082°30'1312.8 100 / 111018.4 14.1 12.6
2014-Oct-12 20:00N 42°30' W 082°36'2110.7 120 / 101018.9 14.0 12.8
2014-Oct-12 18:00N 42°18' W 083°00'9 3.0 100 / 121019.9 13.5 12.0
2014-Oct-12 15:00N 42°18' W 083°12'0 0.0 130 / 91022.6 12.2 18.5
2014-Oct-12 14:00N 42°18' W 083°12'0 0.0 120 / 51023.0 11.0 18.2
2014-Oct-12 13:00N 42°18' W 083°12'0 0.0 140 / 51023.3 10.0 16.0
2014-Oct-12 11:00N 42°18' W 083°12'4 4.4 150 / 21023.0 7.2 16.0
2014-Oct-12 10:00N 42°18' W 083°06'   080 / 31023.3 7.9 15.4

Dump ship's entire track history